Time;durP1;ratioP1;P1;durP2;ratioP2;P2;SDS_P1;SDS_P2;PMS_P1;PMS_P2;Temp;Humidity;BMP_temperature;BMP_pressure;BME280_temperature;BME280_humidity;BME280_pressure;Samples;Min_cycle;Max_cycle;Signal;HPM_P1;HPM_P2
2023/11/23 00:00:56;;;;;;;7.53;4.38;;;12.80;87.50;;;;;;4992985;28;20169;-78
2023/11/23 00:03:21;;;;;;;7.90;4.55;;;12.80;87.50;;;;;;4992813;28;20080;-77
2023/11/23 00:05:47;;;;;;;7.00;4.13;;;12.80;87.60;;;;;;4992757;28;20475;-78
2023/11/23 00:08:13;;;;;;;7.43;4.38;;;12.80;87.60;;;;;;4992394;28;20022;-78
2023/11/23 00:10:39;;;;;;;8.55;4.80;;;12.80;87.60;;;;;;5010531;28;20524;-78
2023/11/23 00:13:05;;;;;;;7.50;4.60;;;12.80;87.50;;;;;;4992831;28;20034;-78
2023/11/23 00:15:31;;;;;;;8.02;4.50;;;12.80;87.50;;;;;;5010446;28;20046;-78
2023/11/23 00:17:56;;;;;;;7.78;4.43;;;12.80;87.50;;;;;;5010356;28;20641;-78
2023/11/23 00:20:22;;;;;;;7.40;4.63;;;12.80;87.60;;;;;;4992649;28;20026;-78
2023/11/23 00:22:47;;;;;;;8.43;4.80;;;12.80;87.50;;;;;;4992649;28;20034;-77
2023/11/23 00:25:14;;;;;;;8.45;4.95;;;12.80;87.60;;;;;;4992929;28;20069;-77
2023/11/23 00:27:39;;;;;;;8.80;4.97;;;12.80;87.60;;;;;;4992446;28;20022;-77
2023/11/23 00:30:06;;;;;;;9.07;4.95;;;12.80;87.70;;;;;;4992776;28;20045;-78
2023/11/23 00:32:33;;;;;;;8.57;5.20;;;12.80;87.60;;;;;;4992783;28;20045;-79
2023/11/23 00:34:58;;;;;;;8.38;4.90;;;12.80;87.50;;;;;;4995780;28;20018;-77
2023/11/23 00:37:24;;;;;;;8.65;4.70;;;12.80;87.80;;;;;;4996289;28;20041;-79
2023/11/23 00:39:50;;;;;;;7.90;4.72;;;12.80;87.70;;;;;;4996343;28;20030;-77
2023/11/23 00:42:15;;;;;;;8.25;4.97;;;12.80;87.90;;;;;;4996038;28;20125;-77
2023/11/23 00:44:41;;;;;;;8.30;4.97;;;12.80;87.80;;;;;;4996477;28;20057;-77
2023/11/23 00:47:06;;;;;;;8.48;4.82;;;12.80;87.80;;;;;;4995721;28;20030;-77
2023/11/23 00:49:33;;;;;;;8.45;5.25;;;12.80;87.60;;;;;;4996325;28;20033;-78
2023/11/23 00:51:59;;;;;;;8.32;4.85;;;12.80;87.80;;;;;;4996237;28;20289;-77
2023/11/23 00:54:25;;;;;;;8.18;5.57;;;12.80;87.80;;;;;;4995937;28;20438;-77
2023/11/23 00:56:50;;;;;;;8.52;4.95;;;12.80;87.90;;;;;;4995985;28;20462;-77
2023/11/23 00:59:16;;;;;;;8.85;5.18;;;12.80;87.90;;;;;;4995648;28;20033;-78
2023/11/23 01:01:41;;;;;;;8.63;5.18;;;12.80;87.90;;;;;;4996210;28;20488;-78
2023/11/23 01:04:07;;;;;;;8.20;5.00;;;12.80;87.90;;;;;;4996014;28;20063;-77
2023/11/23 01:06:34;;;;;;;8.45;5.05;;;12.80;87.90;;;;;;4995909;28;20136;-78
2023/11/23 01:09:00;;;;;;;8.27;5.57;;;12.80;87.90;;;;;;4995443;28;20089;-78
2023/11/23 01:11:25;;;;;;;8.40;5.28;;;12.80;88.00;;;;;;5013582;28;20105;-78
2023/11/23 01:13:51;;;;;;;8.63;5.10;;;12.80;88.10;;;;;;4996067;28;20029;-78
2023/11/23 01:16:17;;;;;;;8.50;4.97;;;12.80;88.00;;;;;;4995835;28;20129;-78
2023/11/23 01:18:43;;;;;;;8.88;5.45;;;12.80;87.90;;;;;;4995348;28;20164;-78
2023/11/23 01:21:09;;;;;;;9.50;5.47;;;12.70;88.00;;;;;;4995555;28;20545;-77
2023/11/23 01:23:34;;;;;;;8.60;5.25;;;12.80;87.90;;;;;;4995647;28;20132;-77
2023/11/23 01:26:00;;;;;;;8.93;5.45;;;12.80;88.00;;;;;;4995360;28;20030;-78
2023/11/23 01:28:25;;;;;;;9.15;5.78;;;12.70;88.00;;;;;;5012585;28;20065;-77
2023/11/23 01:30:51;;;;;;;9.40;5.88;;;12.80;88.00;;;;;;4995521;28;20062;-77
2023/11/23 01:33:17;;;;;;;8.60;5.53;;;12.80;88.00;;;;;;4995442;28;20030;-77
2023/11/23 01:35:43;;;;;;;9.88;6.50;;;12.80;88.00;;;;;;4995443;28;20033;-78
2023/11/23 01:38:09;;;;;;;10.02;5.97;;;12.80;87.90;;;;;;4995104;28;20065;-78
2023/11/23 01:40:34;;;;;;;9.00;6.03;;;12.70;87.90;;;;;;4995501;28;20038;-78
2023/11/23 01:43:02;;;;;;;8.70;5.32;;;12.70;88.00;;;;;;5012781;28;20535;-77
2023/11/23 01:45:27;;;;;;;9.50;6.10;;;12.80;88.00;;;;;;5012103;28;20032;-78
2023/11/23 01:47:53;;;;;;;8.70;5.43;;;12.80;88.00;;;;;;4995098;28;20034;-78
2023/11/23 01:50:20;;;;;;;9.40;6.15;;;12.80;88.10;;;;;;4995317;28;20080;-77
2023/11/23 01:52:47;;;;;;;9.43;6.10;;;12.80;88.10;;;;;;4995023;28;20022;-77
2023/11/23 01:55:13;;;;;;;9.25;5.90;;;12.70;87.90;;;;;;4995002;28;20022;-76
2023/11/23 01:57:39;;;;;;;10.75;6.38;;;12.80;88.10;;;;;;5012455;28;20518;-78
2023/11/23 02:00:05;;;;;;;8.27;5.65;;;12.80;88.10;;;;;;4994832;28;20045;-77
2023/11/23 02:02:31;;;;;;;8.90;5.80;;;12.70;88.00;;;;;;4995135;28;20022;-78
2023/11/23 02:04:58;;;;;;;8.77;5.47;;;12.80;88.10;;;;;;4994745;28;20863;-77
2023/11/23 02:07:25;;;;;;;10.15;6.18;;;12.80;88.10;;;;;;5012469;28;20030;-78
2023/11/23 02:09:51;;;;;;;9.80;5.93;;;12.80;88.10;;;;;;4994471;28;20438;-78
2023/11/23 02:12:18;;;;;;;9.50;5.90;;;12.80;88.10;;;;;;5012680;28;20026;-78
2023/11/23 02:14:44;;;;;;;10.00;5.97;;;12.80;88.20;;;;;;5012345;28;20055;-77
2023/11/23 02:17:19;;;;;;;9.23;5.68;;;12.70;88.50;;;;;;4994264;28;20041;-78
2023/11/23 02:19:46;;;;;;;8.95;5.57;;;12.80;88.10;;;;;;5012227;28;20551;-77
2023/11/23 02:22:12;;;;;;;10.35;6.40;;;12.80;88.20;;;;;;4994483;28;20046;-77
2023/11/23 02:24:38;;;;;;;9.45;6.00;;;12.80;88.20;;;;;;4994616;28;20388;-78
2023/11/23 02:27:06;;;;;;;9.13;6.07;;;12.80;88.20;;;;;;4994096;28;20037;-77
2023/11/23 02:29:31;;;;;;;9.15;5.85;;;12.80;88.20;;;;;;4994408;28;20026;-78
2023/11/23 02:31:58;;;;;;;9.52;6.13;;;12.70;88.10;;;;;;5011914;28;20033;-77
2023/11/23 02:34:24;;;;;;;10.25;6.13;;;12.70;88.60;;;;;;4994186;28;20026;-77
2023/11/23 02:36:49;;;;;;;10.18;6.93;;;12.80;88.20;;;;;;5011775;28;20030;-78
2023/11/23 02:39:15;;;;;;;9.30;6.43;;;12.70;88.20;;;;;;4993714;28;20030;-78
2023/11/23 02:41:40;;;;;;;9.40;6.18;;;12.70;88.20;;;;;;4994420;28;20053;-77
2023/11/23 02:44:06;;;;;;;9.80;6.35;;;12.80;88.40;;;;;;4994306;28;20034;-78
2023/11/23 02:46:31;;;;;;;9.93;6.43;;;12.70;88.30;;;;;;4994190;28;20380;-77
2023/11/23 02:48:57;;;;;;;10.57;7.00;;;12.80;88.30;;;;;;4993854;28;20045;-78
2023/11/23 02:51:22;;;;;;;10.48;6.82;;;12.60;88.10;;;;;;4994466;28;20532;-78
2023/11/23 02:53:48;;;;;;;9.95;6.15;;;12.70;88.30;;;;;;4993888;28;20083;-78
2023/11/23 02:56:17;;;;;;;9.60;6.70;;;12.80;88.30;;;;;;5011656;28;20080;-77
2023/11/23 02:58:43;;;;;;;9.60;6.70;;;12.70;88.20;;;;;;4993684;28;20057;-78
2023/11/23 03:01:08;;;;;;;9.73;6.57;;;12.70;88.10;;;;;;4993892;28;20456;-78
2023/11/23 03:03:34;;;;;;;10.35;6.68;;;12.70;88.10;;;;;;4993871;28;20033;-77
2023/11/23 03:06:00;;;;;;;10.55;6.40;;;12.80;88.20;;;;;;4993895;28;20069;-78
2023/11/23 03:08:26;;;;;;;10.23;6.70;;;12.80;88.30;;;;;;4993818;28;20124;-77
2023/11/23 03:10:53;;;;;;;10.30;6.32;;;12.70;88.30;;;;;;4993889;28;20034;-78
2023/11/23 03:13:19;;;;;;;10.85;6.88;;;12.80;88.30;;;;;;4993948;28;20751;-78
2023/11/23 03:15:45;;;;;;;10.05;6.18;;;12.70;88.20;;;;;;4993669;28;20029;-78
2023/11/23 03:18:10;;;;;;;10.15;7.00;;;12.70;88.30;;;;;;5011016;28;20518;-79
2023/11/23 03:20:36;;;;;;;11.45;7.53;;;12.70;88.30;;;;;;5011491;28;20030;-77
2023/11/23 03:23:02;;;;;;;9.82;6.60;;;12.70;88.30;;;;;;5007934;28;20873;-78
2023/11/23 03:25:27;;;;;;;10.40;6.90;;;12.80;88.30;;;;;;5009052;28;20112;-77
2023/11/23 03:27:53;;;;;;;9.80;6.55;;;12.70;88.40;;;;;;5012667;28;20100;-78
2023/11/23 03:30:18;;;;;;;10.02;6.32;;;12.70;88.40;;;;;;5013015;28;20022;-78
2023/11/23 03:32:44;;;;;;;10.20;6.63;;;12.70;88.30;;;;;;5012900;28;20061;-78
2023/11/23 03:35:09;;;;;;;10.57;7.25;;;12.70;88.30;;;;;;5012906;28;20087;-78
2023/11/23 03:37:35;;;;;;;10.65;6.90;;;12.70;88.30;;;;;;5012569;28;20030;-77
2023/11/23 03:40:02;;;;;;;9.80;6.85;;;12.70;88.30;;;;;;5012774;28;20452;-78
2023/11/23 03:42:28;;;;;;;10.27;6.68;;;12.70;88.20;;;;;;5012722;28;20095;-78
2023/11/23 03:44:53;;;;;;;10.65;6.93;;;12.70;88.20;;;;;;5012761;28;20033;-77
2023/11/23 03:47:19;;;;;;;9.57;6.57;;;12.70;88.30;;;;;;5030157;28;20033;-78
2023/11/23 03:49:45;;;;;;;9.75;6.72;;;12.70;88.30;;;;;;5030308;28;20466;-77
2023/11/23 03:52:11;;;;;;;9.27;6.55;;;12.70;88.40;;;;;;5012647;28;20095;-77
2023/11/23 03:54:37;;;;;;;10.25;6.82;;;12.70;88.40;;;;;;5012813;28;20060;-77
2023/11/23 03:57:04;;;;;;;10.52;6.72;;;12.70;88.40;;;;;;5012478;28;20061;-77
2023/11/23 03:59:29;;;;;;;10.55;7.28;;;12.70;88.50;;;;;;5030155;28;20044;-77
2023/11/23 04:01:55;;;;;;;10.82;7.18;;;12.70;88.30;;;;;;5030383;28;20487;-78
2023/11/23 04:04:21;;;;;;;10.07;6.70;;;12.70;88.50;;;;;;5012391;28;20061;-78
2023/11/23 04:06:47;;;;;;;11.18;7.18;;;12.70;88.30;;;;;;5012133;28;20031;-78
2023/11/23 04:09:13;;;;;;;11.15;7.63;;;12.70;88.40;;;;;;5031914;28;20018;-77
2023/11/23 04:11:38;;;;;;;9.82;6.95;;;12.70;88.30;;;;;;5016498;28;20141;-78
2023/11/23 04:14:04;;;;;;;10.18;6.55;;;12.70;88.40;;;;;;5016245;28;20037;-78
2023/11/23 04:16:29;;;;;;;10.50;6.95;;;12.70;88.40;;;;;;5016522;28;20033;-77
2023/11/23 04:18:55;;;;;;;10.75;7.38;;;12.70;88.40;;;;;;5016220;28;20064;-77
2023/11/23 04:21:21;;;;;;;10.00;6.55;;;12.70;88.40;;;;;;5016136;28;20025;-78
2023/11/23 04:23:46;;;;;;;9.15;6.57;;;12.70;88.50;;;;;;5016192;28;20124;-78
2023/11/23 04:26:12;;;;;;;10.85;7.22;;;12.70;88.60;;;;;;5016243;28;20478;-77
2023/11/23 04:28:39;;;;;;;9.98;7.03;;;12.70;88.60;;;;;;5015758;28;20390;-78
2023/11/23 04:31:05;;;;;;;10.52;7.55;;;12.70;88.50;;;;;;5033880;28;20036;-78
2023/11/23 04:33:30;;;;;;;10.93;7.20;;;12.70;88.50;;;;;;5016296;28;20030;-77
2023/11/23 04:35:57;;;;;;;10.52;7.03;;;12.70;88.50;;;;;;5016054;28;20033;-78
2023/11/23 04:38:22;;;;;;;11.45;7.28;;;12.70;88.50;;;;;;5016045;28;20394;-77
2023/11/23 04:40:48;;;;;;;11.55;7.38;;;12.70;88.50;;;;;;5016049;28;20032;-77
2023/11/23 04:43:13;;;;;;;9.90;7.00;;;12.70;88.50;;;;;;5016012;28;20041;-77
2023/11/23 04:45:41;;;;;;;11.20;7.40;;;12.70;88.60;;;;;;5033772;28;20049;-78
2023/11/23 04:48:06;;;;;;;11.27;7.65;;;12.70;88.50;;;;;;5015654;28;20032;-77
2023/11/23 04:50:33;;;;;;;10.02;6.75;;;12.70;88.50;;;;;;5015702;28;20560;-78
2023/11/23 04:52:58;;;;;;;10.45;7.28;;;12.70;88.60;;;;;;5015886;28;20029;-78
2023/11/23 04:55:24;;;;;;;10.20;7.10;;;12.70;88.50;;;;;;5015989;28;20132;-78
2023/11/23 04:57:49;;;;;;;11.13;7.50;;;12.70;88.60;;;;;;5015685;28;20525;-78
2023/11/23 05:00:15;;;;;;;10.10;6.82;;;12.70;88.50;;;;;;5015738;28;20048;-76
2023/11/23 05:02:43;;;;;;;10.10;7.10;;;12.70;88.60;;;;;;5015922;28;20382;-78
2023/11/23 05:05:12;;;;;;;10.30;7.10;;;12.70;88.70;;;;;;5015751;28;20021;-78
2023/11/23 05:07:39;;;;;;;10.60;7.45;;;12.70;88.70;;;;;;5015387;28;20021;-77
2023/11/23 05:10:08;;;;;;;10.68;6.97;;;12.70;88.60;;;;;;5015707;28;20017;-78
2023/11/23 05:12:37;;;;;;;10.25;7.13;;;12.70;88.60;;;;;;5015720;28;20117;-78
2023/11/23 05:15:06;;;;;;;9.98;7.20;;;12.70;88.60;;;;;;5015395;28;20029;-78
2023/11/23 05:17:32;;;;;;;10.43;7.50;;;12.70;89.10;;;;;;5032765;28;20029;-77
2023/11/23 05:19:58;;;;;;;10.63;7.22;;;12.70;88.60;;;;;;5032145;28;20033;-77
2023/11/23 05:22:24;;;;;;;10.98;7.55;;;12.70;88.60;;;;;;5013923;28;20113;-78
2023/11/23 05:24:50;;;;;;;10.60;7.50;;;12.70;88.70;;;;;;5014735;28;20421;-77
2023/11/23 05:27:16;;;;;;;10.68;7.05;;;12.70;88.70;;;;;;5014961;28;20041;-78
2023/11/23 05:29:41;;;;;;;10.32;6.95;;;12.70;88.70;;;;;;5010894;28;20021;-79
2023/11/23 05:32:07;;;;;;;11.23;7.43;;;12.70;88.70;;;;;;5007467;28;20846;-77
2023/11/23 05:34:32;;;;;;;10.02;6.82;;;12.70;88.70;;;;;;5008179;28;20049;-76
2023/11/23 05:36:58;;;;;;;10.88;6.97;;;12.70;88.70;;;;;;5013389;28;20129;-77
2023/11/23 05:39:23;;;;;;;9.70;6.65;;;12.70;88.80;;;;;;5010386;28;20025;-78
2023/11/23 05:41:49;;;;;;;10.90;7.57;;;12.70;88.80;;;;;;5010505;28;20025;-78
2023/11/23 05:44:14;;;;;;;9.73;6.95;;;12.70;88.90;;;;;;5010859;28;20033;-78
2023/11/23 05:46:40;;;;;;;9.68;6.75;;;12.70;88.80;;;;;;5028018;28;20399;-77
2023/11/23 05:49:07;;;;;;;9.75;6.85;;;12.70;88.70;;;;;;5027422;28;20026;-77
2023/11/23 05:51:32;;;;;;;10.65;7.22;;;12.70;88.90;;;;;;5022115;28;20017;-78
2023/11/23 05:53:58;;;;;;;9.38;6.65;;;12.70;88.80;;;;;;5048856;28;20423;-80
2023/11/23 05:56:26;;;;;;;9.65;6.53;;;12.70;88.80;;;;;;5031015;28;20460;-79
2023/11/23 05:58:51;;;;;;;10.23;7.05;;;12.70;88.70;;;;;;5047403;28;20089;-79
2023/11/23 06:01:17;;;;;;;9.80;6.90;;;12.70;88.80;;;;;;5037011;28;20112;-78
2023/11/23 06:03:42;;;;;;;10.30;7.18;;;12.70;88.90;;;;;;5011057;28;20052;-79
2023/11/23 06:06:20;;;;;;;10.48;7.32;;;12.70;88.90;;;;;;5010769;28;20021;-78
2023/11/23 06:08:50;;;;;;;10.77;6.80;;;12.70;88.90;;;;;;5010072;28;20056;-79
2023/11/23 06:11:16;;;;;;;11.07;7.75;;;12.70;88.90;;;;;;5010727;28;20032;-81
2023/11/23 06:13:49;;;;;;;10.85;6.97;;;12.70;88.80;;;;;;5010645;28;20053;-78
2023/11/23 06:16:15;;;;;;;10.02;6.90;;;12.70;88.90;;;;;;5010367;28;20053;-77
2023/11/23 06:18:41;;;;;;;11.07;7.75;;;12.70;88.90;;;;;;5028559;28;20072;-79
2023/11/23 06:21:06;;;;;;;10.32;7.40;;;12.70;88.80;;;;;;5010756;28;20079;-78
2023/11/23 06:23:32;;;;;;;10.10;6.90;;;12.70;88.90;;;;;;5011253;28;20430;-77
2023/11/23 06:25:58;;;;;;;9.52;6.82;;;12.70;88.80;;;;;;5010651;28;20025;-78
2023/11/23 06:28:24;;;;;;;10.45;7.43;;;12.70;88.80;;;;;;5038657;28;20104;-78
2023/11/23 06:30:50;;;;;;;9.93;7.28;;;12.70;88.80;;;;;;5029215;28;20947;-77
2023/11/23 06:33:16;;;;;;;11.48;7.55;;;12.70;88.80;;;;;;5046760;28;20059;-77
2023/11/23 06:35:41;;;;;;;10.38;7.28;;;12.70;88.90;;;;;;5029375;28;20139;-77
2023/11/23 06:38:07;;;;;;;10.32;7.43;;;12.70;88.90;;;;;;5029389;28;20544;-78
2023/11/23 06:40:35;;;;;;;10.35;7.30;;;12.70;88.90;;;;;;5029680;28;20029;-78
2023/11/23 06:43:04;;;;;;;9.63;6.57;;;12.70;88.90;;;;;;5046510;28;20039;-79
2023/11/23 06:45:30;;;;;;;10.75;7.53;;;12.70;89.00;;;;;;5027986;28;20021;-78
2023/11/23 06:47:55;;;;;;;10.15;7.07;;;12.70;88.90;;;;;;5027787;28;20047;-78
2023/11/23 06:50:21;;;;;;;10.10;7.00;;;12.70;89.00;;;;;;5028297;28;20017;-79
2023/11/23 06:52:47;;;;;;;11.10;7.07;;;12.70;89.00;;;;;;5046930;28;20067;-78
2023/11/23 06:55:14;;;;;;;10.55;7.93;;;12.60;88.90;;;;;;5028529;28;20025;-77
2023/11/23 06:57:43;;;;;;;11.00;7.50;;;12.70;88.90;;;;;;5046407;28;20437;-78
2023/11/23 07:00:21;;;;;;;11.05;7.25;;;12.70;89.00;;;;;;5029244;28;20504;-79
2023/11/23 07:02:56;;;;;;;10.38;7.28;;;12.70;89.00;;;;;;5028540;28;20056;-77
2023/11/23 07:05:24;;;;;;;11.60;7.45;;;12.70;89.00;;;;;;5028679;28;20029;-77
2023/11/23 07:07:50;;;;;;;9.65;6.95;;;12.70;89.00;;;;;;5011260;28;20025;-77
2023/11/23 07:10:19;;;;;;;10.07;7.38;;;12.70;89.00;;;;;;5008711;28;20505;-78
2023/11/23 07:12:46;;;;;;;10.35;7.75;;;12.70;89.00;;;;;;5006655;28;20022;-78
2023/11/23 07:15:12;;;;;;;10.45;7.88;;;12.70;89.00;;;;;;4997511;28;20022;-78
2023/11/23 07:17:38;;;;;;;10.68;7.72;;;12.70;89.10;;;;;;4999049;28;20034;-77
2023/11/23 07:20:05;;;;;;;10.93;7.57;;;12.70;89.00;;;;;;4991753;28;20491;-77
2023/11/23 07:22:33;;;;;;;10.63;7.47;;;12.70;89.10;;;;;;5008418;28;20037;-77
2023/11/23 07:24:59;;;;;;;10.18;7.43;;;12.70;89.10;;;;;;5008785;28;20443;-82
2023/11/23 07:27:25;;;;;;;10.05;7.03;;;12.60;89.00;;;;;;5009923;28;20048;-79
2023/11/23 07:29:51;;;;;;;11.40;8.00;;;12.60;89.00;;;;;;5008942;28;20029;-77
2023/11/23 07:32:16;;;;;;;10.82;7.82;;;12.70;89.10;;;;;;5010749;28;20072;-81
2023/11/23 07:34:42;;;;;;;10.73;7.53;;;12.70;89.10;;;;;;5004314;28;20141;-81
2023/11/23 07:37:10;;;;;;;10.25;7.43;;;12.70;89.10;;;;;;5008208;28;20120;-78
2023/11/23 07:39:35;;;;;;;11.00;7.53;;;12.70;89.10;;;;;;5008108;28;20048;-78
2023/11/23 07:42:01;;;;;;;10.05;6.93;;;12.60;89.10;;;;;;5008420;28;20030;-78
2023/11/23 07:44:29;;;;;;;9.75;7.22;;;12.60;89.10;;;;;;5024931;28;20260;-77
2023/11/23 07:46:54;;;;;;;11.20;7.60;;;12.70;89.10;;;;;;5007758;28;20609;-77
2023/11/23 07:49:20;;;;;;;9.77;7.35;;;12.70;89.20;;;;;;5007748;28;20029;-77
2023/11/23 07:51:45;;;;;;;10.13;7.75;;;12.60;89.10;;;;;;5008218;28;20025;-78
2023/11/23 07:54:10;;;;;;;10.02;7.30;;;12.60;89.10;;;;;;5008070;28;20099;-77
2023/11/23 07:56:36;;;;;;;9.77;7.18;;;12.60;89.10;;;;;;5008927;28;20033;-79
2023/11/23 07:59:02;;;;;;;9.52;6.88;;;12.60;89.10;;;;;;5008324;28;20824;-79
2023/11/23 08:01:28;;;;;;;10.35;7.82;;;12.70;89.20;;;;;;5008894;28;20112;-77
2023/11/23 08:03:53;;;;;;;10.25;7.32;;;12.60;89.20;;;;;;5025521;28;20033;-79
2023/11/23 08:06:19;;;;;;;10.80;7.45;;;12.60;89.10;;;;;;5008340;28;20033;-78
2023/11/23 08:08:44;;;;;;;10.57;8.02;;;12.60;89.20;;;;;;5025261;28;20028;-78
2023/11/23 08:11:10;;;;;;;10.30;7.22;;;12.70;89.20;;;;;;5006795;28;20480;-76
2023/11/23 08:13:36;;;;;;;9.68;7.10;;;12.60;89.20;;;;;;5007283;28;20069;-79
2023/11/23 08:16:02;;;;;;;10.30;7.30;;;12.60;89.20;;;;;;5007746;28;20034;-77
2023/11/23 08:18:28;;;;;;;10.25;7.60;;;12.60;89.20;;;;;;5023909;28;20071;-78
2023/11/23 08:20:53;;;;;;;10.25;7.53;;;12.60;89.10;;;;;;5007636;28;20037;-76
2023/11/23 08:23:19;;;;;;;9.68;7.30;;;12.70;89.20;;;;;;5026090;28;20033;-78
2023/11/23 08:25:44;;;;;;;10.05;6.97;;;12.60;89.10;;;;;;5008469;28;20399;-79
2023/11/23 08:28:10;;;;;;;11.07;8.15;;;12.60;89.20;;;;;;5007698;28;20100;-76
2023/11/23 08:30:36;;;;;;;10.68;7.60;;;12.70;89.30;;;;;;5007570;28;20033;-77
2023/11/23 08:33:01;;;;;;;9.77;7.55;;;12.60;89.10;;;;;;5006056;28;20223;-77
2023/11/23 08:35:28;;;;;;;10.82;7.90;;;12.60;89.20;;;;;;5003799;28;20639;-78
2023/11/23 08:37:54;;;;;;;9.88;7.38;;;12.70;89.20;;;;;;5012290;28;20026;-77
2023/11/23 08:40:20;;;;;;;9.82;7.40;;;12.60;89.20;;;;;;5006825;28;20072;-78
2023/11/23 08:42:45;;;;;;;9.52;6.80;;;12.70;89.20;;;;;;5024517;28;20045;-78
2023/11/23 08:45:11;;;;;;;9.65;7.30;;;12.70;89.30;;;;;;5006732;28;20076;-77
2023/11/23 08:47:36;;;;;;;9.50;7.20;;;12.70;89.30;;;;;;5010037;28;20467;-79
2023/11/23 08:50:02;;;;;;;10.10;7.57;;;12.60;89.30;;;;;;5026430;28;20387;-77
2023/11/23 08:52:28;;;;;;;9.88;7.30;;;12.60;89.30;;;;;;5044708;28;20021;-78
2023/11/23 08:54:53;;;;;;;10.00;7.28;;;12.70;89.30;;;;;;5045937;28;20025;-77
2023/11/23 08:57:19;;;;;;;9.85;7.00;;;12.70;89.30;;;;;;5030269;28;20025;-76
2023/11/23 08:59:44;;;;;;;10.52;7.88;;;12.60;89.30;;;;;;5031022;28;20033;-78
2023/11/23 09:02:10;;;;;;;10.43;7.72;;;12.60;89.30;;;;;;5030522;28;20111;-77
2023/11/23 09:04:39;;;;;;;9.20;7.13;;;12.70;89.30;;;;;;5018437;28;20041;-76
2023/11/23 09:07:05;;;;;;;10.75;7.63;;;12.60;89.30;;;;;;5028988;28;20112;-78
2023/11/23 09:09:30;;;;;;;10.00;7.60;;;12.60;89.20;;;;;;5021917;28;20916;-77
2023/11/23 09:11:57;;;;;;;10.07;7.40;;;12.60;89.30;;;;;;5010465;28;20025;-77
2023/11/23 09:14:23;;;;;;;9.60;6.90;;;12.60;89.30;;;;;;5009295;28;20140;-78
2023/11/23 09:16:48;;;;;;;9.55;7.22;;;12.60;89.40;;;;;;5009131;28;20104;-77
2023/11/23 09:19:14;;;;;;;11.45;7.63;;;12.60;89.30;;;;;;5026870;28;20025;-77
2023/11/23 09:21:40;;;;;;;9.50;7.22;;;12.60;89.30;;;;;;4999125;28;20018;-78
2023/11/23 09:24:06;;;;;;;9.90;7.35;;;12.70;89.80;;;;;;5006976;28;20029;-78
2023/11/23 09:26:34;;;;;;;10.32;6.93;;;12.60;89.30;;;;;;5007575;28;20146;-79
2023/11/23 09:29:02;;;;;;;9.45;7.07;;;12.60;89.30;;;;;;5032188;28;20027;-79
2023/11/23 09:31:31;;;;;;;10.23;7.22;;;12.60;89.30;;;;;;5001085;28;20111;-77
2023/11/23 09:33:56;;;;;;;9.80;7.03;;;12.60;89.40;;;;;;5005472;28;20246;-76
2023/11/23 09:36:22;;;;;;;9.20;6.75;;;12.60;89.40;;;;;;5009577;28;20475;-77
2023/11/23 09:38:49;;;;;;;9.55;7.05;;;12.60;89.40;;;;;;5009553;28;20029;-78
2023/11/23 09:41:19;;;;;;;9.70;7.32;;;12.60;89.40;;;;;;5009560;28;20088;-76
2023/11/23 09:43:47;;;;;;;9.60;7.30;;;12.60;89.40;;;;;;5027739;28;20053;-77
2023/11/23 09:46:14;;;;;;;9.10;6.50;;;12.70;89.50;;;;;;5019970;28;20124;-79
2023/11/23 09:48:42;;;;;;;9.15;6.70;;;12.60;89.40;;;;;;5030000;28;20112;-76
2023/11/23 09:51:09;;;;;;;8.70;6.57;;;12.60;89.40;;;;;;5009694;28;20014;-76
2023/11/23 09:53:36;;;;;;;9.43;7.13;;;12.60;89.40;;;;;;5010522;28;20071;-78
2023/11/23 09:56:06;;;;;;;9.20;6.88;;;12.60;89.40;;;;;;5027938;28;20121;-77
2023/11/23 09:58:32;;;;;;;10.13;7.28;;;12.60;89.40;;;;;;5020139;28;20029;-77
2023/11/23 10:01:02;;;;;;;9.30;7.07;;;12.60;89.40;;;;;;5047995;28;20163;-79
2023/11/23 10:03:33;;;;;;;8.20;6.10;;;12.60;89.40;;;;;;5024295;28;20659;-76
2023/11/23 10:05:59;;;;;;;8.52;6.55;;;12.60;89.40;;;;;;5019657;28;20025;-78
2023/11/23 10:08:27;;;;;;;10.27;7.32;;;12.60;89.50;;;;;;5006301;28;20086;-76
2023/11/23 10:10:53;;;;;;;9.25;6.68;;;12.60;89.40;;;;;;5005978;28;20057;-77
2023/11/23 10:13:19;;;;;;;9.32;6.50;;;12.60;89.50;;;;;;5008849;28;20466;-77
2023/11/23 10:15:45;;;;;;;9.82;6.38;;;12.60;89.40;;;;;;5009270;28;20026;-77
2023/11/23 10:18:11;;;;;;;11.45;8.02;;;12.60;89.60;;;;;;5009407;28;20726;-77
2023/11/23 10:20:36;;;;;;;11.13;8.02;;;12.60;88.70;;;;;;5009607;28;20029;-78
2023/11/23 10:23:03;;;;;;;11.43;7.97;;;12.60;88.40;;;;;;5008963;28;20037;-77
2023/11/23 10:25:35;;;;;;;12.25;8.27;;;12.60;88.30;;;;;;5009370;28;20395;-77
2023/11/23 10:28:03;;;;;;;12.30;8.20;;;12.60;88.20;;;;;;5008981;28;20056;-76
2023/11/23 10:30:29;;;;;;;13.90;8.43;;;12.50;88.10;;;;;;5009193;28;20029;-79
2023/11/23 10:32:58;;;;;;;11.02;7.95;;;12.50;88.10;;;;;;5009146;28;20032;-78
2023/11/23 10:35:40;;;;;;;11.38;7.70;;;12.50;88.10;;;;;;5008642;28;20616;-76
2023/11/23 10:38:07;;;;;;;9.95;7.72;;;12.50;88.00;;;;;;5008179;28;20120;-76
2023/11/23 10:40:33;;;;;;;12.50;8.10;;;12.50;88.10;;;;;;4990691;28;20088;-78
2023/11/23 10:43:03;;;;;;;10.77;7.97;;;12.50;88.10;;;;;;4989427;28;20037;-77
2023/11/23 10:45:35;;;;;;;11.98;8.20;;;12.50;88.20;;;;;;5006678;28;20121;-77
2023/11/23 10:48:01;;;;;;;15.65;8.40;;;12.50;88.30;;;;;;4988733;28;20073;-78
2023/11/23 10:50:28;;;;;;;10.38;7.72;;;12.50;88.20;;;;;;4989062;28;20599;-78
2023/11/23 10:52:57;;;;;;;11.80;7.85;;;12.50;88.20;;;;;;4989363;28;20384;-77
2023/11/23 10:55:22;;;;;;;13.90;7.63;;;12.50;88.40;;;;;;4988805;28;20442;-76
2023/11/23 10:58:04;;;;;;;13.13;7.15;;;12.50;88.30;;;;;;4988747;28;20089;-77
2023/11/23 11:00:29;;;;;;;10.32;7.05;;;12.50;88.30;;;;;;4989394;28;20032;-77
2023/11/23 11:03:00;;;;;;;12.75;7.68;;;12.50;88.30;;;;;;4989181;28;20419;-77
2023/11/23 11:05:30;;;;;;;10.27;7.35;;;12.50;88.40;;;;;;4988852;28;20025;-77
2023/11/23 11:08:01;;;;;;;12.40;7.22;;;12.50;88.50;;;;;;4988547;28;20033;-77
2023/11/23 11:10:50;;;;;;;;;;;12.50;88.40;;;;;;4989105;28;20026;-77
2023/11/23 11:13:18;;;;;;;11.93;7.78;;;12.50;88.40;;;;;;4988409;28;19916;-77
2023/11/23 11:15:58;;;;;;;9.90;7.32;;;12.40;88.40;;;;;;5006313;28;20033;-77
2023/11/23 11:18:25;;;;;;;11.93;7.20;;;12.50;88.50;;;;;;4988469;28;20447;-77
2023/11/23 11:21:10;;;;;;;10.98;7.40;;;12.40;88.50;;;;;;4988593;28;20060;-77
2023/11/23 11:23:46;;;;;;;9.90;6.90;;;12.50;88.50;;;;;;4988506;28;20430;-77
2023/11/23 11:26:25;;;;;;;10.90;6.97;;;12.50;88.50;;;;;;4988249;28;20113;-77
2023/11/23 11:28:58;;;;;;;8.88;6.05;;;12.50;88.50;;;;;;4988325;28;20044;-77
2023/11/23 11:31:35;;;;;;;11.93;7.25;;;12.40;88.40;;;;;;4988518;28;20112;-78
2023/11/23 11:34:03;;;;;;;8.70;6.47;;;12.40;88.40;;;;;;4988263;28;20132;-77
2023/11/23 11:36:31;;;;;;;9.25;6.72;;;12.40;88.50;;;;;;4988355;28;20033;-77
2023/11/23 11:39:00;;;;;;;10.02;6.88;;;12.40;88.40;;;;;;4988055;28;20578;-77
2023/11/23 11:41:34;;;;;;;10.50;6.75;;;12.30;88.40;;;;;;4988390;28;20037;-77
2023/11/23 11:43:59;;;;;;;10.63;6.70;;;12.40;88.50;;;;;;4988369;28;20115;-78
2023/11/23 11:46:28;;;;;;;10.38;6.50;;;12.40;88.50;;;;;;4987955;28;20717;-77
2023/11/23 11:48:54;;;;;;;10.60;6.68;;;12.40;88.60;;;;;;5005796;28;20028;-76
2023/11/23 11:51:20;;;;;;;10.13;6.28;;;12.40;88.60;;;;;;4988598;28;20030;-77
2023/11/23 11:53:46;;;;;;;9.18;6.53;;;12.40;89.00;;;;;;4988208;28;20416;-77
2023/11/23 11:56:13;;;;;;;9.05;6.20;;;12.40;88.70;;;;;;5005947;28;20403;-78
2023/11/23 11:58:38;;;;;;;10.50;6.32;;;12.40;88.80;;;;;;5005345;28;20809;-77
2023/11/23 12:01:06;;;;;;;10.30;6.38;;;12.40;88.80;;;;;;4988216;28;20088;-76
2023/11/23 12:03:31;;;;;;;10.43;6.35;;;12.40;88.80;;;;;;4987823;28;20049;-77
2023/11/23 12:05:57;;;;;;;9.73;6.28;;;12.40;88.80;;;;;;4988196;28;20468;-77
2023/11/23 12:08:25;;;;;;;9.27;6.47;;;12.40;88.80;;;;;;4987939;28;20053;-76
2023/11/23 12:10:50;;;;;;;9.00;6.25;;;12.40;88.80;;;;;;4988331;28;20500;-77
2023/11/23 12:13:25;;;;;;;10.95;6.28;;;12.40;88.80;;;;;;4987618;28;20040;-79
2023/11/23 12:15:54;;;;;;;9.18;6.15;;;12.40;88.80;;;;;;4988313;28;20037;-77
2023/11/23 12:18:35;;;;;;;9.52;5.93;;;12.40;88.90;;;;;;5005265;28;20026;-77
2023/11/23 12:21:01;;;;;;;7.72;5.68;;;12.40;88.90;;;;;;5005404;28;20018;-78
2023/11/23 12:23:27;;;;;;;8.68;5.80;;;12.40;88.90;;;;;;4987817;28;20030;-77
2023/11/23 12:25:54;;;;;;;10.55;6.22;;;12.40;88.90;;;;;;5005571;28;20030;-77
2023/11/23 12:28:21;;;;;;;9.13;6.03;;;12.40;89.00;;;;;;4987445;28;20495;-78
2023/11/23 12:30:47;;;;;;;8.75;5.55;;;12.40;89.10;;;;;;4990594;28;20030;-79
2023/11/23 12:33:13;;;;;;;10.23;5.97;;;12.40;89.10;;;;;;4991834;28;20026;-78
2023/11/23 12:35:39;;;;;;;8.65;5.82;;;12.40;89.10;;;;;;4991941;28;20026;-77
2023/11/23 12:38:06;;;;;;;8.73;6.03;;;12.40;89.20;;;;;;5009275;28;20030;-77